AirNav   Bose Proflight Series 2 Wireless Aviation Headset
 
 1496 users online  

FD45 Fort Walton Beach Medical Center Heliport
Fort Walton Beach, Florida, USA

GOING TO FORT WALTON BEACH?


FAA INFORMATION EFFECTIVE 07 NOVEMBER 2019

Location

FAA Identifier: FD45
Lat/Long: 30-27-18.5100N 086-37-57.6200W
30-27.308500N 086-37.960333W
30.4551417,-86.6326722
(estimated)
Elevation: 61 ft. / 19 m (estimated)
Variation: 00E (1985)
From city: 3 miles N of FORT WALTON BEACH, FL
Time zone: UTC -6 (UTC -5 during Daylight Saving Time)
Zip code: 32547

Heliport Operations

Heliport use: Private use, MEDICAL.
Activation date: 10/1985
Control tower: no
ARTCC: JACKSONVILLE CENTER
FSS: GAINESVILLE FLIGHT SERVICE STATION
Attendance: DAYLIGHT HOURS
Wind indicator: yes
Segmented circle: no

Heliport Communications

WX ASOS at DTS (9 nm E): PHONE 850-654-7128

Nearby radio navigation aids

VOR radial/distance  VOR name  Freq  Var
CEWr171/22.4CRESTVIEW VORTAC115.9003E
NUNr091/(36.4)SAUFLEY VOR108.8001E

 
NDB name  Hdg/Dist  Freq  Var  ID
PICKENS090/28.232602WPKZ .--. -.- --..

Heliport Services

Runway Information

Helipad H1

Dimensions: 43 x 50 ft. / 13 x 15 m
Surface: mats, in fair condition
Latitude: 30-27.308500N
Longitude: 086-37.960333W
Elevation: 61.0 ft.
Traffic pattern: leftleft

Heliport Ownership and Management from official FAA records

Ownership: Privately-owned
Owner: FORT WALTON BEACH MEDICAL CENTER
1000 MAR WALT DRIVE
FORT WALTON BEACH, FL 32547
Phone 850-863-7540
Manager: ANDY MILLER
1000 MAR WALT DRIVE
FORT WALTON BEACH, FL 32547
Phone 850-863-7540

Additional Remarks

FOR CD CTC EGLIN APCH 850-882-9152 OR 850-882-9151.

Instrument Procedures

There are no published instrument procedures at FD45.

Some nearby airports with instrument procedures:

KHRT - Hurlburt Field Airport (3 nm SW)
KVPS - Eglin Air Force Base/Destin-Fort Walton Beach Airport (6 nm E)
KDTS - Destin Executive Airport (9 nm E)
KEGI - Duke Field (Eglin AF Aux Nr 3) Airport (13 nm NE)
KCEW - Bob Sikes Airport (20 nm N)
 
Loc | Ops | Rwys | IFR | FBO | Links
Com | Nav | Svcs | Stats | Notes
Area around FD45 (Fort Walton Beach Medical Center Heliport)
 
Road maps at: MapQuest Bing Google
 
Aerial photo
No photo
 
Sectional chart

 
Airport distance calculator
Flying to Fort Walton Beach Medical Center Heliport? Find the distance to fly.

From to FD45

Sunrise and sunset
Times for 12-Nov-2019
 Local
(UTC-6)
 Zulu
(UTC)
Morning civil twilight05:4611:46
Sunrise06:1112:11
Sunset16:5022:50
Evening civil twilight17:1623:16

Current date and time
Zulu (UTC)  12-Nov-2019 17:13:05
Local (UTC-6)  12-Nov-2019 11:13:05
 
METAR
KHRT 
3nm SW 
121656Z 36022G32KT 10SM BKN013 FEW100 FEW140 08/02 A3010 RMK AO2A SLP195 T00810022 $
KVPS 
6nm E 
121656Z AUTO 36021G31KT 10SM BKN016 BKN090 OVC100 09/04 A3011 RMK AO2 PK WND 01031/41 RAE35 CIG 016V090 BKN016 V SCT SLPNO P0000 T00850043 $
KDTS 
9nm E 
121653Z 35019G31KT 10SM SCT010 OVC015 08/05 A3011 RMK AO2 PK WND 36031/1647 SLP195 T00830050
KEGI 
12nm NE 
121656Z AUTO 35021G28KT 10SM -DZ BKN015 07/04 A3012 RMK AO2 PK WND 35028/35 SLP200 P0000 T00690039 $
KCEW 
20nm N 
121653Z AUTO 35013G20KT 10SM BKN014 OVC019 07/03 A3016 RMK AO2 SLP212 T00670028
TAF
KHRT 
3nm SW 
121520Z 1215/1316 34020G30KT 8000 SHRA BKN010 BKN050 QNH3008INS BECMG 1217/1218 36025G35KT 9999 NSW SCT010 BKN035 QNH3009INS BECMG 1219/1220 36020G25KT 9999 SCT030 BKN250 QNH3010INS BECMG 1223/1224 36012G20KT 9999 FEW030 BKN250 QNH3013INS BECMG 1303/1304 36012G20KT 9999 SCT250 QNH3015INS TX10/1220Z TN01/1310Z
KVPS 
6nm E 
121355Z 1213/1316 34015G25KT 9000 -SHRA OVC007 520009 QNH3008INS TEMPO 1213/1218 34025G35KT OVC008 BECMG 1217/1218 34015G30KT 9999 NSW OVC010 520009 QNH3005INS BECMG 1223/1300 36012G18KT 9999 BKN020 QNH3012INS BECMG 1308/1309 03010G15KT 9999 SKC QNH3025INS TX09/1214Z TNM02/1310Z
KEGI 
12nm NE 
121305Z 1213/1316 32020G35KT 9000 -RA OVC012 QNH3004INS TEMPO 1213/1217 31012G20KT BKN007 BECMG 1217/1218 35020G35KT 9999 NSW SCT020 BKN250 QNH3011INS BECMG 1223/1224 01015G25KT 9999 SKC QNH3018INS BECMG 1314/1315 05012G18KT 9999 SKC QNH3028INS TX09/1213Z TNM02/1308Z
NOTAMs
Click for the latest NOTAMs
NOTAMs are issued by the DoD/FAA and will open in a separate window not controlled by AirNav.

 

 
 

Would you like to see your business listed on this page?

 If your business provides an interesting product or service to pilots, flight crews, aircraft, or users of the Fort Walton Beach Medical Center Heliport, you should consider listing it here.  To start the listing process, click on the button below
 
Add a business
 

Other Pages about Fort Walton Beach Medical Center Heliport

Update a link
 
Copyright © AirNav, LLC. All rights reserved. Privacy Policy  Contact